Columbus, Ohio
Traffic Map
Current Weather Conditions
Columbus, Ohio
Broken Clouds
Broken Clouds
87°
Feels Like: 95°
Wind Chill: 87° Ceiling: 20000
Heat Index: 95° Visibility: 10mi
Dew Point: 74° Wind: 8mph
Humidity: 65% Direction: 230° (SW)
Pressure: 30.01in Gusts: 0mph
Raw Report DataKCMH 241451Z 23007KT 10SM BKN200 31/23 A3001 RMK AO2 SLP154 T03060233 50004
Traffic Incident Summary
Active as of:
Severity:
Category:
InformationThere was an issue retrieving the traffic information for this location. Please try a different location or try again shortly.
Advertisements
Track Severe Weather on mobile